sensor_id;sensor_type;location;lat;lon;timestamp;pressure;altitude;pressure_sealevel;temperature;humidity
35151;BME280;55720;51.972;4.624;2023-04-28T00:01:47;101513.88;;;8.12;100.00
35151;BME280;55720;51.972;4.624;2023-04-28T00:04:13;101513.88;;;8.12;100.00
35151;BME280;55720;51.972;4.624;2023-04-28T00:06:38;101496.63;;;8.12;100.00
35151;BME280;55720;51.972;4.624;2023-04-28T00:09:04;101482.34;;;8.15;100.00
35151;BME280;55720;51.972;4.624;2023-04-28T00:11:29;101474.25;;;8.10;100.00
35151;BME280;55720;51.972;4.624;2023-04-28T00:13:55;101453.69;;;8.12;100.00
35151;BME280;55720;51.972;4.624;2023-04-28T00:16:20;101444.88;;;8.15;100.00
35151;BME280;55720;51.972;4.624;2023-04-28T00:18:45;101439.53;;;8.24;100.00
35151;BME280;55720;51.972;4.624;2023-04-28T00:21:11;101439.22;;;8.25;100.00
35151;BME280;55720;51.972;4.624;2023-04-28T00:23:36;101441.66;;;8.27;100.00
35151;BME280;55720;51.972;4.624;2023-04-28T00:26:02;101440.19;;;8.34;100.00
35151;BME280;55720;51.972;4.624;2023-04-28T00:28:27;101437.34;;;8.39;100.00
35151;BME280;55720;51.972;4.624;2023-04-28T00:30:52;101432.06;;;8.43;100.00
35151;BME280;55720;51.972;4.624;2023-04-28T00:33:18;101428.22;;;8.44;100.00
35151;BME280;55720;51.972;4.624;2023-04-28T00:35:43;101418.09;;;8.45;100.00
35151;BME280;55720;51.972;4.624;2023-04-28T00:38:08;101409.06;;;8.44;100.00
35151;BME280;55720;51.972;4.624;2023-04-28T00:40:35;101405.31;;;8.40;100.00
35151;BME280;55720;51.972;4.624;2023-04-28T00:43:01;101410.16;;;8.43;100.00
35151;BME280;55720;51.972;4.624;2023-04-28T00:45:27;101405.72;;;8.47;100.00
35151;BME280;55720;51.972;4.624;2023-04-28T00:47:53;101405.44;;;8.49;100.00
35151;BME280;55720;51.972;4.624;2023-04-28T00:50:19;101403.19;;;8.51;100.00
35151;BME280;55720;51.972;4.624;2023-04-28T00:52:46;101394.69;;;8.52;100.00
35151;BME280;55720;51.972;4.624;2023-04-28T00:55:13;101388.19;;;8.48;100.00
35151;BME280;55720;51.972;4.624;2023-04-28T00:57:40;101392.06;;;8.61;100.00
35151;BME280;55720;51.972;4.624;2023-04-28T01:00:06;101391.63;;;8.54;100.00
35151;BME280;55720;51.972;4.624;2023-04-28T01:02:32;101390.03;;;8.53;100.00
35151;BME280;55720;51.972;4.624;2023-04-28T01:04:58;101382.44;;;8.50;100.00
35151;BME280;55720;51.972;4.624;2023-04-28T01:07:23;101375.53;;;8.52;100.00
35151;BME280;55720;51.972;4.624;2023-04-28T01:09:48;101361.94;;;8.47;100.00
35151;BME280;55720;51.972;4.624;2023-04-28T01:12:14;101360.94;;;8.57;100.00
35151;BME280;55720;51.972;4.624;2023-04-28T01:14:39;101367.31;;;8.52;100.00
35151;BME280;55720;51.972;4.624;2023-04-28T01:17:05;101371.06;;;8.56;100.00
35151;BME280;55720;51.972;4.624;2023-04-28T01:19:31;101366.06;;;8.58;100.00
35151;BME280;55720;51.972;4.624;2023-04-28T01:21:57;101360.72;;;8.53;100.00
35151;BME280;55720;51.972;4.624;2023-04-28T01:24:22;101356.84;;;8.54;100.00
35151;BME280;55720;51.972;4.624;2023-04-28T01:26:47;101351.72;;;8.53;100.00
35151;BME280;55720;51.972;4.624;2023-04-28T01:29:13;101349.97;;;8.57;100.00
35151;BME280;55720;51.972;4.624;2023-04-28T01:31:38;101349.34;;;8.60;100.00
35151;BME280;55720;51.972;4.624;2023-04-28T01:34:03;101342.78;;;8.61;100.00
35151;BME280;55720;51.972;4.624;2023-04-28T01:36:29;101341.25;;;8.55;100.00
35151;BME280;55720;51.972;4.624;2023-04-28T01:38:54;101338.63;;;8.50;100.00
35151;BME280;55720;51.972;4.624;2023-04-28T01:41:20;101329.00;;;8.52;100.00
35151;BME280;55720;51.972;4.624;2023-04-28T01:43:46;101324.94;;;8.50;100.00
35151;BME280;55720;51.972;4.624;2023-04-28T01:46:12;101321.59;;;8.53;100.00
35151;BME280;55720;51.972;4.624;2023-04-28T01:48:37;101322.03;;;8.46;100.00
35151;BME280;55720;51.972;4.624;2023-04-28T01:51:02;101313.38;;;8.53;100.00
35151;BME280;55720;51.972;4.624;2023-04-28T01:53:28;101322.59;;;8.43;100.00
35151;BME280;55720;51.972;4.624;2023-04-28T01:55:53;101324.34;;;8.53;100.00
35151;BME280;55720;51.972;4.624;2023-04-28T01:58:19;101330.72;;;8.48;100.00
35151;BME280;55720;51.972;4.624;2023-04-28T02:00:45;101325.53;;;8.47;100.00
35151;BME280;55720;51.972;4.624;2023-04-28T02:03:10;101318.66;;;8.49;100.00
35151;BME280;55720;51.972;4.624;2023-04-28T02:05:36;101314.00;;;8.50;100.00
35151;BME280;55720;51.972;4.624;2023-04-28T02:08:01;101306.59;;;8.50;100.00
35151;BME280;55720;51.972;4.624;2023-04-28T02:10:27;101310.47;;;8.49;100.00
35151;BME280;55720;51.972;4.624;2023-04-28T02:12:52;101305.47;;;8.51;100.00
35151;BME280;55720;51.972;4.624;2023-04-28T02:15:17;101301.72;;;8.47;100.00
35151;BME280;55720;51.972;4.624;2023-04-28T02:17:43;101301.53;;;8.44;100.00
35151;BME280;55720;51.972;4.624;2023-04-28T02:20:09;101297.50;;;8.41;100.00
35151;BME280;55720;51.972;4.624;2023-04-28T02:22:34;101287.84;;;8.44;100.00
35151;BME280;55720;51.972;4.624;2023-04-28T02:25:00;101289.19;;;8.46;100.00
35151;BME280;55720;51.972;4.624;2023-04-28T02:27:26;101281.88;;;8.42;100.00
35151;BME280;55720;51.972;4.624;2023-04-28T02:29:51;101283.00;;;8.40;100.00
35151;BME280;55720;51.972;4.624;2023-04-28T02:32:17;101277.22;;;8.42;100.00
35151;BME280;55720;51.972;4.624;2023-04-28T02:34:42;101270.94;;;8.42;100.00
35151;BME280;55720;51.972;4.624;2023-04-28T02:37:08;101260.41;;;8.35;100.00
35151;BME280;55720;51.972;4.624;2023-04-28T02:39:33;101266.19;;;8.33;100.00
35151;BME280;55720;51.972;4.624;2023-04-28T02:41:58;101269.44;;;8.35;100.00
35151;BME280;55720;51.972;4.624;2023-04-28T02:44:24;101270.84;;;8.33;100.00
35151;BME280;55720;51.972;4.624;2023-04-28T02:46:49;101261.91;;;8.27;100.00
35151;BME280;55720;51.972;4.624;2023-04-28T02:49:15;101262.72;;;8.28;100.00
35151;BME280;55720;51.972;4.624;2023-04-28T02:51:40;101263.84;;;8.27;100.00
35151;BME280;55720;51.972;4.624;2023-04-28T02:54:06;101269.53;;;8.30;100.00
35151;BME280;55720;51.972;4.624;2023-04-28T02:56:32;101266.47;;;8.32;100.00
35151;BME280;55720;51.972;4.624;2023-04-28T02:58:58;101266.91;;;8.39;100.00
35151;BME280;55720;51.972;4.624;2023-04-28T03:01:23;101267.09;;;8.43;100.00
35151;BME280;55720;51.972;4.624;2023-04-28T03:03:48;101261.72;;;8.37;100.00
35151;BME280;55720;51.972;4.624;2023-04-28T03:06:14;101265.47;;;8.42;100.00
35151;BME280;55720;51.972;4.624;2023-04-28T03:08:39;101270.13;;;8.41;100.00
35151;BME280;55720;51.972;4.624;2023-04-28T03:11:05;101262.13;;;8.45;100.00
35151;BME280;55720;51.972;4.624;2023-04-28T03:13:30;101258.88;;;8.43;100.00
35151;BME280;55720;51.972;4.624;2023-04-28T03:15:56;101261.63;;;8.43;100.00
35151;BME280;55720;51.972;4.624;2023-04-28T03:18:21;101259.91;;;8.33;100.00
35151;BME280;55720;51.972;4.624;2023-04-28T03:20:47;101249.88;;;8.42;100.00
35151;BME280;55720;51.972;4.624;2023-04-28T03:23:13;101249.06;;;8.42;100.00
35151;BME280;55720;51.972;4.624;2023-04-28T03:25:38;101250.28;;;8.35;100.00
35151;BME280;55720;51.972;4.624;2023-04-28T03:28:04;101249.34;;;8.40;100.00
35151;BME280;55720;51.972;4.624;2023-04-28T03:30:30;101243.56;;;8.42;100.00
35151;BME280;55720;51.972;4.624;2023-04-28T03:32:55;101238.53;;;8.35;100.00
35151;BME280;55720;51.972;4.624;2023-04-28T03:35:20;101225.72;;;8.44;100.00
35151;BME280;55720;51.972;4.624;2023-04-28T03:37:46;101222.59;;;8.37;100.00
35151;BME280;55720;51.972;4.624;2023-04-28T03:40:11;101221.78;;;8.36;100.00
35151;BME280;55720;51.972;4.624;2023-04-28T03:42:37;101220.19;;;8.35;100.00
35151;BME280;55720;51.972;4.624;2023-04-28T03:45:02;101202.66;;;8.23;100.00
35151;BME280;55720;51.972;4.624;2023-04-28T03:47:28;101210.56;;;8.24;100.00
35151;BME280;55720;51.972;4.624;2023-04-28T03:49:53;101205.28;;;8.28;100.00
35151;BME280;55720;51.972;4.624;2023-04-28T03:52:19;101199.81;;;8.28;100.00
35151;BME280;55720;51.972;4.624;2023-04-28T03:54:44;101195.06;;;8.20;100.00
35151;BME280;55720;51.972;4.624;2023-04-28T03:57:10;101194.16;;;8.24;100.00
35151;BME280;55720;51.972;4.624;2023-04-28T03:59:36;101193.34;;;8.24;100.00
35151;BME280;55720;51.972;4.624;2023-04-28T04:02:02;101188.69;;;8.24;100.00
35151;BME280;55720;51.972;4.624;2023-04-28T04:04:27;101166.59;;;8.21;100.00
35151;BME280;55720;51.972;4.624;2023-04-28T04:06:52;101161.50;;;8.28;100.00
35151;BME280;55720;51.972;4.624;2023-04-28T04:09:18;101157.41;;;8.17;100.00
35151;BME280;55720;51.972;4.624;2023-04-28T04:11:44;101154.22;;;8.23;100.00
35151;BME280;55720;51.972;4.624;2023-04-28T04:14:09;101141.78;;;8.31;100.00
35151;BME280;55720;51.972;4.624;2023-04-28T04:16:35;101149.16;;;8.30;100.00
35151;BME280;55720;51.972;4.624;2023-04-28T04:19:01;101144.59;;;8.26;100.00
35151;BME280;55720;51.972;4.624;2023-04-28T04:21:26;101144.28;;;8.27;100.00
35151;BME280;55720;51.972;4.624;2023-04-28T04:23:52;101135.56;;;8.25;100.00
35151;BME280;55720;51.972;4.624;2023-04-28T04:26:17;101119.38;;;8.29;100.00
35151;BME280;55720;51.972;4.624;2023-04-28T04:28:43;101124.63;;;8.25;100.00
35151;BME280;55720;51.972;4.624;2023-04-28T04:31:08;101129.50;;;8.28;100.00
35151;BME280;55720;51.972;4.624;2023-04-28T04:33:33;101115.59;;;8.25;100.00
35151;BME280;55720;51.972;4.624;2023-04-28T04:35:59;101107.09;;;8.26;100.00
35151;BME280;55720;51.972;4.624;2023-04-28T04:38:25;101113.38;;;8.27;100.00
35151;BME280;55720;51.972;4.624;2023-04-28T04:40:50;101117.97;;;8.31;100.00
35151;BME280;55720;51.972;4.624;2023-04-28T04:43:16;101127.47;;;8.34;100.00
35151;BME280;55720;51.972;4.624;2023-04-28T04:45:41;101143.69;;;8.30;100.00
35151;BME280;55720;51.972;4.624;2023-04-28T04:48:07;101129.28;;;8.25;100.00
35151;BME280;55720;51.972;4.624;2023-04-28T04:50:32;101103.19;;;8.19;100.00
35151;BME280;55720;51.972;4.624;2023-04-28T04:52:58;101054.13;;;8.00;100.00
35151;BME280;55720;51.972;4.624;2023-04-28T04:55:23;101021.47;;;7.81;100.00
35151;BME280;55720;51.972;4.624;2023-04-28T04:57:48;100987.75;;;7.64;100.00
35151;BME280;55720;51.972;4.624;2023-04-28T05:00:14;100964.19;;;7.54;100.00
35151;BME280;55720;51.972;4.624;2023-04-28T05:02:41;100944.59;;;7.52;100.00
35151;BME280;55720;51.972;4.624;2023-04-28T05:05:07;100903.78;;;7.56;100.00
35151;BME280;55720;51.972;4.624;2023-04-28T05:07:33;100869.13;;;7.42;100.00
35151;BME280;55720;51.972;4.624;2023-04-28T05:09:58;100843.72;;;7.42;100.00
35151;BME280;55720;51.972;4.624;2023-04-28T05:12:23;100821.69;;;7.38;100.00
35151;BME280;55720;51.972;4.624;2023-04-28T05:14:49;100776.25;;;7.42;100.00
35151;BME280;55720;51.972;4.624;2023-04-28T05:17:14;100737.56;;;7.49;100.00
35151;BME280;55720;51.972;4.624;2023-04-28T05:19:40;100707.56;;;7.58;100.00
35151;BME280;55720;51.972;4.624;2023-04-28T05:22:05;100676.22;;;7.55;100.00
35151;BME280;55720;51.972;4.624;2023-04-28T05:24:31;100672.16;;;7.44;100.00
35151;BME280;55720;51.972;4.624;2023-04-28T05:26:59;100651.91;;;7.45;100.00
35151;BME280;55720;51.972;4.624;2023-04-28T05:29:25;100629.09;;;7.41;100.00
35151;BME280;55720;51.972;4.624;2023-04-28T05:31:51;100615.09;;;7.42;100.00
35151;BME280;55720;51.972;4.624;2023-04-28T05:34:16;100583.28;;;7.47;100.00
35151;BME280;55720;51.972;4.624;2023-04-28T05:36:42;100541.50;;;7.46;100.00
35151;BME280;55720;51.972;4.624;2023-04-28T05:39:07;100479.31;;;7.43;100.00
35151;BME280;55720;51.972;4.624;2023-04-28T05:41:34;100436.13;;;7.36;100.00
35151;BME280;55720;51.972;4.624;2023-04-28T05:44:00;100385.69;;;7.34;100.00
35151;BME280;55720;51.972;4.624;2023-04-28T05:46:26;100348.72;;;7.36;100.00
35151;BME280;55720;51.972;4.624;2023-04-28T05:48:51;100309.22;;;7.34;100.00
35151;BME280;55720;51.972;4.624;2023-04-28T05:51:16;100271.44;;;7.45;100.00
35151;BME280;55720;51.972;4.624;2023-04-28T05:53:42;100233.28;;;7.57;100.00
35151;BME280;55720;51.972;4.624;2023-04-28T05:56:07;100207.56;;;7.66;100.00
35151;BME280;55720;51.972;4.624;2023-04-28T05:58:33;100185.31;;;7.76;100.00
35151;BME280;55720;51.972;4.624;2023-04-28T06:00:58;100176.50;;;7.71;100.00
35151;BME280;55720;51.972;4.624;2023-04-28T06:03:24;100167.44;;;7.87;100.00
35151;BME280;55720;51.972;4.624;2023-04-28T06:05:49;100163.94;;;7.78;100.00
35151;BME280;55720;51.972;4.624;2023-04-28T06:08:15;100155.50;;;7.92;100.00
35151;BME280;55720;51.972;4.624;2023-04-28T06:10:40;100148.22;;;7.96;100.00
35151;BME280;55720;51.972;4.624;2023-04-28T06:13:06;100141.84;;;7.92;100.00
35151;BME280;55720;51.972;4.624;2023-04-28T06:15:32;100137.31;;;8.17;100.00
35151;BME280;55720;51.972;4.624;2023-04-28T06:17:57;100106.34;;;8.25;100.00
35151;BME280;55720;51.972;4.624;2023-04-28T06:20:26;100105.06;;;8.31;100.00
35151;BME280;55720;51.972;4.624;2023-04-28T06:22:51;100119.00;;;8.17;100.00
35151;BME280;55720;51.972;4.624;2023-04-28T06:25:16;100115.66;;;8.32;100.00
35151;BME280;55720;51.972;4.624;2023-04-28T06:27:42;100117.53;;;8.40;100.00
35151;BME280;55720;51.972;4.624;2023-04-28T06:30:08;100135.47;;;8.29;100.00
35151;BME280;55720;51.972;4.624;2023-04-28T06:32:33;100128.94;;;8.43;100.00
35151;BME280;55720;51.972;4.624;2023-04-28T06:34:59;100119.31;;;8.57;100.00
35151;BME280;55720;51.972;4.624;2023-04-28T06:37:24;100106.34;;;8.66;100.00
35151;BME280;55720;51.972;4.624;2023-04-28T06:39:50;100106.22;;;8.63;100.00
35151;BME280;55720;51.972;4.624;2023-04-28T06:42:16;100090.75;;;8.79;100.00
35151;BME280;55720;51.972;4.624;2023-04-28T06:44:43;100078.84;;;9.08;100.00
35151;BME280;55720;51.972;4.624;2023-04-28T06:47:09;100078.59;;;9.37;100.00
35151;BME280;55720;51.972;4.624;2023-04-28T06:49:34;100083.41;;;9.40;100.00
35151;BME280;55720;51.972;4.624;2023-04-28T06:52:00;100105.22;;;9.36;100.00
35151;BME280;55720;51.972;4.624;2023-04-28T06:54:25;100097.78;;;9.49;100.00
35151;BME280;55720;51.972;4.624;2023-04-28T06:56:50;100081.94;;;9.55;100.00
35151;BME280;55720;51.972;4.624;2023-04-28T06:59:16;100084.31;;;9.32;100.00
35151;BME280;55720;51.972;4.624;2023-04-28T07:01:42;100066.75;;;9.33;100.00
35151;BME280;55720;51.972;4.624;2023-04-28T07:04:07;100045.84;;;9.53;100.00
35151;BME280;55720;51.972;4.624;2023-04-28T07:06:32;100047.91;;;9.44;100.00
35151;BME280;55720;51.972;4.624;2023-04-28T07:08:58;100026.09;;;9.47;100.00
35151;BME280;55720;51.972;4.624;2023-04-28T07:11:23;100010.09;;;9.49;100.00
35151;BME280;55720;51.972;4.624;2023-04-28T07:13:49;99993.69;;;9.77;100.00
35151;BME280;55720;51.972;4.624;2023-04-28T07:16:16;99947.84;;;9.89;100.00
35151;BME280;55720;51.972;4.624;2023-04-28T07:18:42;99969.97;;;9.29;100.00
35151;BME280;55720;51.972;4.624;2023-04-28T07:21:08;99934.06;;;9.58;100.00
35151;BME280;55720;51.972;4.624;2023-04-28T07:23:33;99928.03;;;9.40;100.00
35151;BME280;55720;51.972;4.624;2023-04-28T07:25:58;99919.34;;;9.51;100.00
35151;BME280;55720;51.972;4.624;2023-04-28T07:28:24;99888.25;;;9.86;100.00
35151;BME280;55720;51.972;4.624;2023-04-28T07:30:49;99889.28;;;9.82;100.00
35151;BME280;55720;51.972;4.624;2023-04-28T07:33:15;99896.13;;;9.60;100.00
35151;BME280;55720;51.972;4.624;2023-04-28T07:35:40;99886.97;;;9.68;100.00
35151;BME280;55720;51.972;4.624;2023-04-28T07:38:06;99874.44;;;9.83;100.00
35151;BME280;55720;51.972;4.624;2023-04-28T07:40:31;99871.22;;;10.09;100.00
35151;BME280;55720;51.972;4.624;2023-04-28T07:42:56;99863.69;;;10.53;100.00
35151;BME280;55720;51.972;4.624;2023-04-28T07:45:22;99846.72;;;10.98;100.00
35151;BME280;55720;51.972;4.624;2023-04-28T07:47:47;99868.38;;;10.68;100.00
35151;BME280;55720;51.972;4.624;2023-04-28T07:50:13;99873.78;;;10.64;100.00
35151;BME280;55720;51.972;4.624;2023-04-28T07:52:38;99884.22;;;10.74;100.00
35151;BME280;55720;51.972;4.624;2023-04-28T07:55:04;99881.47;;;10.90;100.00
35151;BME280;55720;51.972;4.624;2023-04-28T07:57:30;99875.22;;;11.09;100.00
35151;BME280;55720;51.972;4.624;2023-04-28T07:59:56;99879.25;;;11.15;100.00
35151;BME280;55720;51.972;4.624;2023-04-28T08:02:21;99880.66;;;11.24;100.00
35151;BME280;55720;51.972;4.624;2023-04-28T08:04:47;99893.22;;;11.06;100.00
35151;BME280;55720;51.972;4.624;2023-04-28T08:07:12;99898.63;;;11.03;100.00
35151;BME280;55720;51.972;4.624;2023-04-28T08:09:38;99901.38;;;11.03;100.00
35151;BME280;55720;51.972;4.624;2023-04-28T08:12:06;99901.72;;;11.01;100.00
35151;BME280;55720;51.972;4.624;2023-04-28T08:14:31;99890.09;;;11.08;100.00
35151;BME280;55720;51.972;4.624;2023-04-28T08:16:56;99895.81;;;10.83;100.00
35151;BME280;55720;51.972;4.624;2023-04-28T08:19:22;99883.94;;;10.95;100.00
35151;BME280;55720;51.972;4.624;2023-04-28T08:21:48;99877.47;;;11.22;100.00
35151;BME280;55720;51.972;4.624;2023-04-28T08:24:13;99881.66;;;11.16;100.00
35151;BME280;55720;51.972;4.624;2023-04-28T08:26:38;99894.78;;;11.07;100.00
35151;BME280;55720;51.972;4.624;2023-04-28T08:29:04;99877.19;;;11.27;100.00
35151;BME280;55720;51.972;4.624;2023-04-28T08:31:29;99882.38;;;11.32;100.00
35151;BME280;55720;51.972;4.624;2023-04-28T08:33:55;99875.09;;;11.21;100.00
35151;BME280;55720;51.972;4.624;2023-04-28T08:36:20;99871.78;;;11.50;100.00
35151;BME280;55720;51.972;4.624;2023-04-28T08:38:46;99872.22;;;11.52;100.00
35151;BME280;55720;51.972;4.624;2023-04-28T08:41:13;99868.53;;;11.64;100.00
35151;BME280;55720;51.972;4.624;2023-04-28T08:43:39;99856.66;;;11.60;100.00
35151;BME280;55720;51.972;4.624;2023-04-28T08:46:07;99857.94;;;11.66;100.00
35151;BME280;55720;51.972;4.624;2023-04-28T08:48:43;99861.72;;;11.77;100.00
35151;BME280;55720;51.972;4.624;2023-04-28T08:51:27;99860.34;;;12.09;100.00
35151;BME280;55720;51.972;4.624;2023-04-28T08:54:16;99847.81;;;12.34;100.00
35151;BME280;55720;51.972;4.624;2023-04-28T08:56:43;99858.94;;;12.42;100.00
35151;BME280;55720;51.972;4.624;2023-04-28T08:59:09;99851.94;;;12.44;100.00
35151;BME280;55720;51.972;4.624;2023-04-28T09:01:35;99839.56;;;12.83;100.00
35151;BME280;55720;51.972;4.624;2023-04-28T09:04:01;99823.13;;;13.20;100.00
35151;BME280;55720;51.972;4.624;2023-04-28T09:06:31;99824.69;;;13.18;100.00
35151;BME280;55720;51.972;4.624;2023-04-28T09:09:37;99826.28;;;13.19;100.00
35151;BME280;55720;51.972;4.624;2023-04-28T09:12:03;99833.50;;;13.27;100.00
35151;BME280;55720;51.972;4.624;2023-04-28T09:14:34;99827.91;;;13.57;100.00
35151;BME280;55720;51.972;4.624;2023-04-28T09:17:00;99845.84;;;13.73;100.00
35151;BME280;55720;51.972;4.624;2023-04-28T09:19:33;99845.28;;;13.94;100.00
35151;BME280;55720;51.972;4.624;2023-04-28T09:22:00;99875.75;;;13.71;100.00
35151;BME280;55720;51.972;4.624;2023-04-28T09:24:29;99888.75;;;13.71;100.00
35151;BME280;55720;51.972;4.624;2023-04-28T09:26:59;99881.47;;;13.89;100.00
35151;BME280;55720;51.972;4.624;2023-04-28T09:29:25;99879.03;;;14.17;100.00
35151;BME280;55720;51.972;4.624;2023-04-28T09:31:50;99908.50;;;14.06;100.00
35151;BME280;55720;51.972;4.624;2023-04-28T09:34:17;99918.94;;;13.90;100.00
35151;BME280;55720;51.972;4.624;2023-04-28T09:36:43;99931.91;;;13.86;100.00
35151;BME280;55720;51.972;4.624;2023-04-28T09:39:08;99942.19;;;13.89;100.00
35151;BME280;55720;51.972;4.624;2023-04-28T09:41:41;99932.72;;;14.23;100.00
35151;BME280;55720;51.972;4.624;2023-04-28T09:46:37;99942.06;;;14.45;100.00
35151;BME280;55720;51.972;4.624;2023-04-28T09:49:02;99957.16;;;14.58;100.00
35151;BME280;55720;51.972;4.624;2023-04-28T09:51:28;99979.06;;;14.77;100.00
35151;BME280;55720;51.972;4.624;2023-04-28T09:53:54;100008.53;;;14.63;100.00
35151;BME280;55720;51.972;4.624;2023-04-28T09:56:26;100008.66;;;14.77;100.00
35151;BME280;55720;51.972;4.624;2023-04-28T09:58:52;100025.94;;;14.67;100.00
35151;BME280;55720;51.972;4.624;2023-04-28T10:01:18;100026.94;;;14.89;100.00
35151;BME280;55720;51.972;4.624;2023-04-28T10:03:44;100039.41;;;14.72;100.00
35151;BME280;55720;51.972;4.624;2023-04-28T10:06:10;100028.78;;;15.18;100.00
35151;BME280;55720;51.972;4.624;2023-04-28T10:08:36;100035.50;;;15.71;100.00
35151;BME280;55720;51.972;4.624;2023-04-28T10:11:01;100076.66;;;15.77;100.00
35151;BME280;55720;51.972;4.624;2023-04-28T10:13:27;100108.78;;;15.41;100.00
35151;BME280;55720;51.972;4.624;2023-04-28T10:15:53;100125.66;;;15.28;100.00
35151;BME280;55720;51.972;4.624;2023-04-28T10:18:21;100133.88;;;15.21;100.00
35151;BME280;55720;51.972;4.624;2023-04-28T10:20:49;100125.03;;;15.05;100.00
35151;BME280;55720;51.972;4.624;2023-04-28T10:26:10;100086.41;;;14.39;100.00
35151;BME280;55720;51.972;4.624;2023-04-28T10:28:43;100019.44;;;14.49;100.00
35151;BME280;55720;51.972;4.624;2023-04-28T10:31:19;99983.13;;;14.47;100.00
35151;BME280;55720;51.972;4.624;2023-04-28T10:33:46;99973.97;;;14.39;100.00
35151;BME280;55720;51.972;4.624;2023-04-28T10:36:48;99968.69;;;14.30;100.00
35151;BME280;55720;51.972;4.624;2023-04-28T10:39:17;99958.75;;;14.22;100.00
35151;BME280;55720;51.972;4.624;2023-04-28T10:41:44;99968.69;;;14.30;100.00
35151;BME280;55720;51.972;4.624;2023-04-28T10:47:05;99973.78;;;14.62;100.00
35151;BME280;55720;51.972;4.624;2023-04-28T10:55:32;99967.22;;;14.37;100.00
35151;BME280;55720;51.972;4.624;2023-04-28T11:00:46;99962.97;;;14.13;100.00
35151;BME280;55720;51.972;4.624;2023-04-28T11:03:38;99953.41;;;14.03;100.00
35151;BME280;55720;51.972;4.624;2023-04-28T11:06:21;99956.75;;;13.86;100.00
35151;BME280;55720;51.972;4.624;2023-04-28T11:08:49;99950.97;;;13.65;100.00
35151;BME280;55720;51.972;4.624;2023-04-28T11:11:17;99923.47;;;13.72;100.00
35151;BME280;55720;51.972;4.624;2023-04-28T11:13:43;99907.31;;;13.70;100.00
35151;BME280;55720;51.972;4.624;2023-04-28T11:16:13;99903.22;;;13.61;100.00
35151;BME280;55720;51.972;4.624;2023-04-28T11:18:51;99895.53;;;13.44;100.00
35151;BME280;55720;51.972;4.624;2023-04-28T11:21:17;99873.22;;;13.56;100.00
35151;BME280;55720;51.972;4.624;2023-04-28T11:23:43;99860.59;;;13.55;100.00
35151;BME280;55720;51.972;4.624;2023-04-28T11:26:09;99845.91;;;13.44;100.00
35151;BME280;55720;51.972;4.624;2023-04-28T11:28:35;99832.16;;;13.47;100.00
35151;BME280;55720;51.972;4.624;2023-04-28T11:31:11;99820.38;;;13.50;100.00
35151;BME280;55720;51.972;4.624;2023-04-28T11:33:37;99824.56;;;13.37;100.00
35151;BME280;55720;51.972;4.624;2023-04-28T11:36:04;99814.41;;;13.45;100.00
35151;BME280;55720;51.972;4.624;2023-04-28T11:38:29;99807.16;;;13.66;100.00
35151;BME280;55720;51.972;4.624;2023-04-28T11:40:58;99810.16;;;13.54;100.00
35151;BME280;55720;51.972;4.624;2023-04-28T11:43:29;99799.31;;;13.72;100.00
35151;BME280;55720;51.972;4.624;2023-04-28T11:45:55;99806.31;;;13.62;100.00
35151;BME280;55720;51.972;4.624;2023-04-28T11:48:21;99800.84;;;13.66;100.00
35151;BME280;55720;51.972;4.624;2023-04-28T11:50:47;99800.59;;;13.78;100.00
35151;BME280;55720;51.972;4.624;2023-04-28T11:53:12;99803.25;;;13.71;100.00
35151;BME280;55720;51.972;4.624;2023-04-28T11:55:37;99796.63;;;13.79;100.00
35151;BME280;55720;51.972;4.624;2023-04-28T11:58:21;99799.19;;;13.98;100.00
35151;BME280;55720;51.972;4.624;2023-04-28T12:01:12;99805.13;;;14.00;100.00
35151;BME280;55720;51.972;4.624;2023-04-28T12:03:46;99801.25;;;14.08;100.00
35151;BME280;55720;51.972;4.624;2023-04-28T12:06:16;99808.31;;;14.02;100.00
35151;BME280;55720;51.972;4.624;2023-04-28T12:08:45;99810.00;;;14.14;100.00
35151;BME280;55720;51.972;4.624;2023-04-28T12:11:12;99812.84;;;14.24;100.00
35151;BME280;55720;51.972;4.624;2023-04-28T12:13:38;99821.38;;;14.09;100.00
35151;BME280;55720;51.972;4.624;2023-04-28T12:16:04;99833.06;;;13.95;100.00
35151;BME280;55720;51.972;4.624;2023-04-28T12:18:34;99849.44;;;13.77;100.00
35151;BME280;55720;51.972;4.624;2023-04-28T12:21:01;99852.16;;;13.74;100.00
35151;BME280;55720;51.972;4.624;2023-04-28T12:25:55;99854.25;;;13.84;100.00
35151;BME280;55720;51.972;4.624;2023-04-28T12:28:21;99851.41;;;13.77;100.00
35151;BME280;55720;51.972;4.624;2023-04-28T12:30:47;99855.56;;;13.97;100.00
35151;BME280;55720;51.972;4.624;2023-04-28T12:33:26;99862.19;;;13.93;100.00
35151;BME280;55720;51.972;4.624;2023-04-28T12:35:53;99863.09;;;14.04;100.00
35151;BME280;55720;51.972;4.624;2023-04-28T12:38:23;99855.09;;;13.88;100.00
35151;BME280;55720;51.972;4.624;2023-04-28T12:40:49;99868.44;;;13.86;100.00
35151;BME280;55720;51.972;4.624;2023-04-28T12:43:14;99876.69;;;13.82;100.00
35151;BME280;55720;51.972;4.624;2023-04-28T12:45:40;99876.97;;;13.70;100.00
35151;BME280;55720;51.972;4.624;2023-04-28T12:48:06;99868.66;;;13.67;100.00
35151;BME280;55720;51.972;4.624;2023-04-28T12:50:32;99879.63;;;13.63;100.00
35151;BME280;55720;51.972;4.624;2023-04-28T12:52:57;99893.56;;;13.44;100.00
35151;BME280;55720;51.972;4.624;2023-04-28T12:55:24;99893.84;;;13.36;100.00
35151;BME280;55720;51.972;4.624;2023-04-28T12:57:49;99906.41;;;13.33;100.00
35151;BME280;55720;51.972;4.624;2023-04-28T13:00:15;99904.72;;;13.55;100.00
35151;BME280;55720;51.972;4.624;2023-04-28T13:02:42;99904.94;;;13.72;100.00
35151;BME280;55720;51.972;4.624;2023-04-28T13:05:07;99909.19;;;13.63;100.00
35151;BME280;55720;51.972;4.624;2023-04-28T13:07:33;99919.53;;;13.43;100.00